createdAt,value
2022-11-21T00:01:21.445Z,-2.44
2022-11-21T00:03:49.081Z,-2.23
2022-11-21T00:06:17.328Z,-2.37
2022-11-21T00:08:45.074Z,-2.24
2022-11-21T00:11:12.725Z,-2.40
2022-11-21T00:13:40.749Z,-2.41
2022-11-21T00:16:12.562Z,-2.31
2022-11-21T00:18:39.900Z,-2.29
2022-11-21T00:21:11.371Z,-2.25
2022-11-21T00:23:38.368Z,-2.23
2022-11-21T00:26:07.143Z,-2.05
2022-11-21T00:28:35.369Z,-1.84
2022-11-21T00:31:03.689Z,-2.02
2022-11-21T00:33:30.885Z,-1.99
2022-11-21T00:35:58.001Z,-1.98
2022-11-21T00:38:24.907Z,-1.89
2022-11-21T00:40:51.914Z,-1.89
2022-11-21T00:43:18.805Z,-1.88
2022-11-21T00:45:45.789Z,-2.03
2022-11-21T00:48:12.732Z,-1.97
2022-11-21T00:50:39.679Z,-1.96
2022-11-21T00:53:06.625Z,-1.78
2022-11-21T00:55:33.534Z,-1.92
2022-11-21T00:58:00.457Z,-1.90
2022-11-21T01:00:27.458Z,-1.95
2022-11-21T01:02:54.447Z,-1.89
2022-11-21T01:05:21.435Z,-1.87
2022-11-21T01:07:51.550Z,-1.60
2022-11-21T01:10:18.710Z,-1.89
2022-11-21T01:12:45.754Z,-1.91
2022-11-21T01:15:12.743Z,-1.97
2022-11-21T01:17:39.689Z,-1.89
2022-11-21T01:20:07.685Z,-1.92
2022-11-21T01:22:34.654Z,-1.96
2022-11-21T01:25:01.601Z,-1.87
2022-11-21T01:27:28.529Z,-1.87
2022-11-21T01:29:55.474Z,-1.98
2022-11-21T01:32:22.376Z,-1.76
2022-11-21T01:34:49.321Z,-2.00
2022-11-21T01:37:16.266Z,-2.10
2022-11-21T01:39:43.162Z,-2.13
2022-11-21T01:42:13.061Z,-2.18
2022-11-21T01:44:54.463Z,-2.14
2022-11-21T01:47:22.855Z,-2.17
2022-11-21T01:49:52.325Z,-2.29
2022-11-21T01:52:30.462Z,-2.20
2022-11-21T01:55:07.108Z,-2.27
2022-11-21T01:57:44.179Z,-2.37
2022-11-21T02:00:23.217Z,-2.39
2022-11-21T02:02:56.900Z,-2.44
2022-11-21T02:05:30.583Z,-2.44
2022-11-21T02:08:14.618Z,-2.34
2022-11-21T02:11:04.124Z,-2.31
2022-11-21T02:13:31.114Z,-2.47
2022-11-21T02:15:58.665Z,-2.56
2022-11-21T02:18:25.577Z,-2.69
2022-11-21T02:21:05.279Z,-2.68
2022-11-21T02:24:03.818Z,-2.61
2022-11-21T02:26:31.206Z,-2.59
2022-11-21T02:28:58.641Z,-2.53
2022-11-21T02:31:55.646Z,-2.71
2022-11-21T02:38:03.131Z,-2.70
2022-11-21T02:42:05.097Z,-2.65
2022-11-21T03:30:45.106Z,-2.85
2022-11-21T04:24:41.666Z,-3.32
2022-11-21T04:42:01.995Z,-3.32
2022-11-21T04:49:19.852Z,-3.38
2022-11-21T04:53:21.500Z,-3.41
2022-11-21T04:59:17.490Z,-3.28
2022-11-21T05:02:24.057Z,-3.36
2022-11-21T05:06:41.354Z,-3.36
2022-11-21T05:08:22.360Z,-3.42
2022-11-21T05:11:27.520Z,-3.39
2022-11-21T05:14:04.951Z,-3.42
2022-11-21T05:17:08.002Z,-3.40
2022-11-21T05:19:41.555Z,-3.39
2022-11-21T05:22:26.311Z,-3.39
2022-11-21T05:25:07.445Z,-3.44
2022-11-21T05:27:57.315Z,-3.69
2022-11-21T05:31:40.099Z,-3.68
2022-11-21T05:33:56.700Z,-3.57
2022-11-21T05:36:37.933Z,-3.56
2022-11-21T05:43:08.064Z,-3.63
2022-11-21T05:52:55.278Z,-3.78
2022-11-21T05:56:47.241Z,-3.61
2022-11-21T06:02:20.773Z,-3.74
2022-11-21T06:08:34.667Z,-3.69
2022-11-21T06:18:27.341Z,-3.55
2022-11-21T06:25:37.421Z,-3.59
2022-11-21T06:30:11.034Z,-3.40
2022-11-21T06:32:01.686Z,-3.21
2022-11-21T06:35:55.619Z,-2.95
2022-11-21T06:38:35.052Z,-2.89
2022-11-21T06:41:52.981Z,-3.03
2022-11-21T06:45:11.742Z,-2.70
2022-11-21T06:52:18.350Z,-2.65
2022-11-21T06:55:12.941Z,-2.64
2022-11-21T06:58:26.896Z,-2.04
2022-11-21T07:01:17.224Z,-2.12
2022-11-21T07:04:40.760Z,-2.46
2022-11-21T07:08:25.332Z,-2.23
2022-11-21T07:11:29.564Z,-1.84
2022-11-21T07:14:28.719Z,-1.48
2022-11-21T07:17:12.982Z,-1.08
2022-11-21T07:19:51.938Z,-0.62
2022-11-21T07:22:55.911Z,-0.21
2022-11-21T07:26:30.642Z,0.08
2022-11-21T07:30:12.071Z,0.34
2022-11-21T07:32:50.814Z,0.83
2022-11-21T07:38:33.761Z,1.70
2022-11-21T07:41:23.688Z,2.05
2022-11-21T07:44:51.160Z,2.73
2022-11-21T08:11:15.519Z,4.91
2022-11-21T08:23:35.973Z,6.39
2022-11-21T08:26:31.583Z,6.30
2022-11-21T08:29:38.159Z,7.07
2022-11-21T08:33:08.240Z,7.02
2022-11-21T08:37:02.180Z,7.68
2022-11-21T10:04:06.264Z,6.46
2022-11-21T10:07:04.021Z,5.58
2022-11-21T10:10:20.970Z,4.99
2022-11-21T10:13:15.236Z,5.45
2022-11-21T10:16:18.771Z,6.40
2022-11-21T10:19:29.879Z,6.14
2022-11-21T10:22:23.665Z,6.27
2022-11-21T10:25:03.225Z,5.63
2022-11-21T10:28:10.998Z,5.56
2022-11-21T10:30:44.224Z,5.33
2022-11-21T10:33:36.358Z,5.10
2022-11-21T10:36:33.661Z,5.97
2022-11-21T10:39:14.668Z,6.38
2022-11-21T10:41:54.370Z,6.15
2022-11-21T10:44:50.551Z,6.26
2022-11-21T10:47:27.925Z,7.21
2022-11-21T10:50:20.641Z,6.48
2022-11-21T10:53:25.349Z,5.96
2022-11-21T10:56:17.610Z,5.58
2022-11-21T10:58:49.964Z,5.84
2022-11-21T11:01:31.702Z,5.38
2022-11-21T11:04:26.683Z,5.23
2022-11-21T11:06:54.540Z,5.99
2022-11-21T11:09:30.266Z,6.07
2022-11-21T11:12:50.993Z,5.85
2022-11-21T11:15:26.764Z,5.93
2022-11-21T11:18:02.734Z,5.53
2022-11-21T11:20:41.434Z,4.80
2022-11-21T11:23:20.645Z,5.02
2022-11-21T11:25:51.047Z,5.36
2022-11-21T11:28:19.379Z,5.03
2022-11-21T11:30:49.069Z,4.83
2022-11-21T11:33:37.070Z,4.86
2022-11-21T11:36:33.988Z,4.58
2022-11-21T11:39:09.403Z,4.66
2022-11-21T11:42:45.126Z,4.64
2022-11-21T11:45:30.279Z,4.51
2022-11-21T11:48:19.847Z,4.33
2022-11-21T11:51:04.490Z,3.90
2022-11-21T11:53:44.885Z,4.00
2022-11-21T11:56:43.743Z,3.98
2022-11-21T11:59:18.889Z,3.52
2022-11-21T12:02:11.642Z,3.32
2022-11-21T12:04:50.976Z,3.38
2022-11-21T12:08:33.082Z,3.53
2022-11-21T12:10:28.672Z,3.63
2022-11-21T12:13:16.382Z,3.67
2022-11-21T12:15:52.626Z,3.29
2022-11-21T12:18:19.582Z,3.51
2022-11-21T12:21:15.364Z,3.45
2022-11-21T12:23:55.942Z,3.27
2022-11-21T12:27:10.940Z,3.20
2022-11-21T12:30:16.073Z,3.24
2022-11-21T12:33:17.646Z,3.50
2022-11-21T12:36:16.269Z,3.12
2022-11-21T12:39:03.375Z,3.21
2022-11-21T12:42:20.226Z,3.27
2022-11-21T12:45:43.033Z,3.54
2022-11-21T12:48:44.094Z,3.71
2022-11-21T12:51:38.922Z,4.02
2022-11-21T12:54:40.957Z,3.86
2022-11-21T12:57:11.767Z,3.26
2022-11-21T13:00:12.322Z,3.48
2022-11-21T13:03:04.003Z,3.37
2022-11-21T13:05:40.766Z,3.32
2022-11-21T13:08:24.730Z,3.31
2022-11-21T13:11:31.136Z,3.56
2022-11-21T13:14:27.374Z,3.33
2022-11-21T13:17:26.355Z,3.36
2022-11-21T13:20:02.303Z,3.22
2022-11-21T13:22:38.115Z,3.01
2022-11-21T13:25:39.587Z,3.04
2022-11-21T13:28:18.769Z,2.92
2022-11-21T13:30:56.789Z,2.90
2022-11-21T13:33:36.044Z,3.02
2022-11-21T13:36:12.054Z,2.94
2022-11-21T13:38:53.969Z,3.09
2022-11-21T13:41:54.747Z,3.01
2022-11-21T13:44:30.698Z,3.09
2022-11-21T13:47:15.047Z,3.20
2022-11-21T13:50:04.692Z,3.00
2022-11-21T13:52:43.951Z,3.14
2022-11-21T13:56:06.238Z,3.19
2022-11-21T13:58:53.853Z,3.03
2022-11-21T14:01:36.166Z,3.12
2022-11-21T14:04:44.831Z,2.82
2022-11-21T14:07:34.029Z,2.98
2022-11-21T14:10:26.737Z,2.77
2022-11-21T14:12:56.063Z,2.57
2022-11-21T14:16:16.483Z,3.02
2022-11-21T14:18:47.179Z,2.70
2022-11-21T14:21:29.796Z,2.75
2022-11-21T14:24:00.222Z,2.90
2022-11-21T14:26:31.098Z,2.79
2022-11-21T14:29:28.164Z,2.75
2022-11-21T14:31:56.078Z,2.69
2022-11-21T14:34:29.014Z,2.77
2022-11-21T14:37:00.550Z,2.81
2022-11-21T14:39:38.091Z,2.76
2022-11-21T14:42:16.409Z,2.65
2022-11-21T14:44:44.135Z,2.59
2022-11-21T14:47:26.211Z,2.52
2022-11-21T14:50:00.943Z,2.56
2022-11-21T14:52:33.990Z,2.69
2022-11-21T14:55:28.967Z,2.71
2022-11-21T14:57:55.890Z,2.62
2022-11-21T15:00:58.076Z,2.35
2022-11-21T15:03:21.596Z,2.38
2022-11-21T15:06:07.268Z,2.08
2022-11-21T15:11:37.293Z,2.12
2022-11-21T15:14:17.744Z,1.80
2022-11-21T15:16:52.959Z,1.63
2022-11-21T15:19:32.670Z,1.26
2022-11-21T15:22:04.731Z,1.63
2022-11-21T15:24:43.374Z,1.64
2022-11-21T15:27:28.695Z,1.76
2022-11-21T15:30:12.409Z,1.74
2022-11-21T15:34:12.229Z,1.46
2022-11-21T15:36:37.447Z,1.47
2022-11-21T15:39:07.236Z,1.60
2022-11-21T15:41:36.513Z,1.63
2022-11-21T15:44:03.363Z,1.67
2022-11-21T15:46:33.478Z,1.70
2022-11-21T15:49:30.863Z,1.66
2022-11-21T15:52:09.938Z,1.51
2022-11-21T15:54:37.263Z,1.61
2022-11-21T15:57:04.209Z,1.71
2022-11-21T15:59:31.778Z,1.61
2022-11-21T16:01:58.907Z,1.70
2022-11-21T16:04:26.375Z,1.84
2022-11-21T16:06:56.436Z,1.51
2022-11-21T16:09:23.405Z,1.67
2022-11-21T16:11:50.414Z,1.61
2022-11-21T16:14:20.787Z,1.68
2022-11-21T16:16:47.956Z,1.43
2022-11-21T16:19:15.751Z,1.42
2022-11-21T16:21:43.299Z,1.56
2022-11-21T16:24:10.399Z,1.40
2022-11-21T16:26:37.451Z,1.48
2022-11-21T16:29:07.449Z,1.45
2022-11-21T16:31:34.785Z,1.52
2022-11-21T16:34:01.917Z,1.43
2022-11-21T16:36:31.185Z,1.56
2022-11-21T16:39:05.229Z,1.54
2022-11-21T16:41:35.353Z,1.43
2022-11-21T16:44:02.403Z,1.55
2022-11-21T16:46:29.357Z,1.21
2022-11-21T16:49:02.197Z,1.26
2022-11-21T16:51:30.279Z,1.30
2022-11-21T16:54:00.560Z,1.39
2022-11-21T16:56:28.810Z,1.43
2022-11-21T16:58:56.222Z,1.34
2022-11-21T17:01:26.183Z,1.50
2022-11-21T17:03:53.360Z,1.65
2022-11-21T17:06:28.451Z,1.45
2022-11-21T17:08:55.743Z,1.36
2022-11-21T17:11:28.249Z,1.34
2022-11-21T17:13:58.628Z,1.46
2022-11-21T17:16:25.694Z,1.44
2022-11-21T17:18:58.166Z,1.53
2022-11-21T17:21:26.318Z,1.57
2022-11-21T17:23:53.697Z,1.45
2022-11-21T17:26:24.138Z,1.35
2022-11-21T17:28:56.203Z,1.32
2022-11-21T17:31:23.611Z,1.42
2022-11-21T17:33:51.707Z,1.31
2022-11-21T17:36:21.697Z,1.37
2022-11-21T17:38:49.276Z,1.37
2022-11-21T17:41:18.597Z,1.31
2022-11-21T17:43:47.178Z,1.50
2022-11-21T17:46:20.038Z,1.35
2022-11-21T17:48:54.897Z,1.40
2022-11-21T17:51:29.338Z,1.29
2022-11-21T17:53:57.154Z,1.29
2022-11-21T17:56:28.867Z,1.22
2022-11-21T17:58:56.433Z,1.48
2022-11-21T18:01:23.745Z,1.50
2022-11-21T18:04:10.130Z,1.34
2022-11-21T18:06:40.641Z,1.49
2022-11-21T18:09:10.870Z,1.55
2022-11-21T18:11:40.299Z,1.34
2022-11-21T18:14:10.058Z,1.32
2022-11-21T18:16:39.524Z,1.33
2022-11-21T18:19:07.589Z,1.33
2022-11-21T18:21:38.197Z,1.38
2022-11-21T18:24:05.590Z,1.33
2022-11-21T18:26:37.004Z,1.43
2022-11-21T18:31:54.593Z,1.25
2022-11-21T18:34:21.535Z,1.49
2022-11-21T18:36:48.461Z,1.36
2022-11-21T18:39:26.327Z,1.31
2022-11-21T18:41:53.364Z,1.28
2022-11-21T18:44:22.340Z,1.35
2022-11-21T18:46:49.801Z,1.23
2022-11-21T18:49:16.833Z,1.48
2022-11-21T18:51:44.189Z,1.53
2022-11-21T18:54:11.681Z,1.46
2022-11-21T18:56:39.875Z,1.43
2022-11-21T18:59:07.593Z,1.51
2022-11-21T19:01:37.089Z,1.73
2022-11-21T19:04:04.935Z,2.01
2022-11-21T19:06:32.548Z,2.21
2022-11-21T19:08:59.716Z,2.39
2022-11-21T19:11:29.188Z,2.41
2022-11-21T19:13:58.057Z,2.42
2022-11-21T19:16:27.455Z,2.13
2022-11-21T19:21:42.581Z,1.90
2022-11-21T19:24:14.661Z,1.90
2022-11-21T19:26:42.956Z,2.01
2022-11-21T19:29:10.761Z,1.97
2022-11-21T19:31:44.701Z,1.93
2022-11-21T19:34:16.708Z,1.86
2022-11-21T19:36:44.965Z,1.95
2022-11-21T19:39:12.709Z,1.86
2022-11-21T19:41:39.760Z,1.83
2022-11-21T19:44:06.731Z,1.86
2022-11-21T19:46:38.151Z,1.89
2022-11-21T19:49:06.695Z,1.80
2022-11-21T19:51:41.105Z,1.65
2022-11-21T19:54:11.119Z,1.63
2022-11-21T19:56:38.192Z,1.65
2022-11-21T19:59:05.649Z,1.66
2022-11-21T20:01:34.865Z,1.71
2022-11-21T20:04:04.245Z,1.79
2022-11-21T20:06:41.365Z,1.78
2022-11-21T20:09:10.964Z,1.82
2022-11-21T20:11:40.963Z,1.79
2022-11-21T20:14:08.943Z,1.84
2022-11-21T20:16:39.571Z,1.94
2022-11-21T20:19:10.544Z,1.76
2022-11-21T20:21:38.998Z,1.75
2022-11-21T20:24:07.422Z,1.74
2022-11-21T20:26:35.726Z,1.87
2022-11-21T20:29:04.187Z,1.91
2022-11-21T20:31:37.300Z,1.92
2022-11-21T20:34:13.558Z,1.95
2022-11-21T20:36:41.607Z,2.09
2022-11-21T20:39:16.939Z,1.86
2022-11-21T20:41:45.762Z,1.94
2022-11-21T20:45:25.736Z,1.84
2022-11-21T20:47:07.469Z,1.85
2022-11-21T20:49:34.971Z,1.81
2022-11-21T20:54:48.879Z,1.74
2022-11-21T20:57:15.932Z,1.74
2022-11-21T20:59:43.276Z,1.75
2022-11-21T21:02:14.348Z,1.81
2022-11-21T21:04:42.272Z,1.83
2022-11-21T21:07:09.732Z,1.72
2022-11-21T21:09:36.774Z,1.81
2022-11-21T21:12:05.099Z,1.63
2022-11-21T21:14:32.073Z,1.75
2022-11-21T21:16:59.002Z,1.80
2022-11-21T21:19:26.002Z,1.78
2022-11-21T21:21:52.942Z,1.73
2022-11-21T21:24:20.030Z,1.70
2022-11-21T21:26:49.001Z,1.68
2022-11-21T21:29:19.747Z,1.63
2022-11-21T21:31:51.497Z,1.56
2022-11-21T21:34:21.181Z,1.47
2022-11-21T21:36:49.011Z,1.54
2022-11-21T21:39:15.975Z,1.54
2022-11-21T21:41:46.804Z,1.60
2022-11-21T21:44:14.920Z,1.50
2022-11-21T21:46:42.155Z,1.45
2022-11-21T21:49:09.127Z,1.46
2022-11-21T21:51:37.470Z,1.47
2022-11-21T21:54:05.131Z,1.46
2022-11-21T21:56:32.662Z,1.53
2022-11-21T21:59:00.043Z,1.52
2022-11-21T22:01:32.256Z,1.56
2022-11-21T22:04:02.673Z,1.62
2022-11-21T22:06:32.836Z,1.81
2022-11-21T22:08:59.769Z,1.73
2022-11-21T22:11:33.008Z,1.74
2022-11-21T22:14:03.969Z,1.65
2022-11-21T22:16:31.780Z,1.75
2022-11-21T22:18:59.189Z,1.67
2022-11-21T22:21:32.998Z,1.83
2022-11-21T22:24:24.696Z,1.78
2022-11-21T22:26:52.338Z,1.74
2022-11-21T22:29:19.313Z,1.76
2022-11-21T22:31:46.403Z,1.62
2022-11-21T22:34:14.272Z,1.60
2022-11-21T22:36:41.762Z,1.64
2022-11-21T22:39:09.140Z,1.64
2022-11-21T22:41:36.194Z,1.66
2022-11-21T22:44:03.359Z,1.70
2022-11-21T22:46:31.344Z,1.73
2022-11-21T22:48:59.334Z,1.59
2022-11-21T22:51:29.696Z,1.62
2022-11-21T22:53:57.519Z,1.67
2022-11-21T22:56:25.758Z,1.75
2022-11-21T22:58:53.154Z,1.61
2022-11-21T23:01:23.587Z,1.64
2022-11-21T23:03:51.327Z,1.61
2022-11-21T23:06:21.973Z,1.65
2022-11-21T23:08:49.751Z,1.74
2022-11-21T23:11:22.723Z,1.69
2022-11-21T23:13:50.536Z,1.75
2022-11-21T23:16:18.597Z,1.65
2022-11-21T23:18:45.933Z,1.72
2022-11-21T23:21:14.201Z,1.73
2022-11-21T23:23:41.463Z,1.70
2022-11-21T23:26:08.413Z,1.61
2022-11-21T23:28:35.309Z,1.70
2022-11-21T23:31:02.686Z,1.64
2022-11-21T23:33:29.751Z,1.66
2022-11-21T23:35:56.775Z,1.65
2022-11-21T23:38:23.911Z,1.62
2022-11-21T23:40:50.992Z,1.57
2022-11-21T23:43:18.984Z,1.51
2022-11-21T23:45:51.621Z,1.62
2022-11-21T23:48:19.788Z,1.64
2022-11-21T23:50:48.152Z,1.67
2022-11-21T23:53:15.203Z,1.73
2022-11-21T23:55:43.877Z,1.71
2022-11-21T23:58:12.949Z,1.56
